createdAt,value
2023-02-19T00:01:27.312Z,1.38
2023-02-19T00:03:56.481Z,0.70
2023-02-19T00:06:25.417Z,0.82
2023-02-19T00:08:52.177Z,0.80
2023-02-19T00:11:22.046Z,1.10
2023-02-19T00:13:51.130Z,0.98
2023-02-19T00:16:23.759Z,0.60
2023-02-19T00:18:50.889Z,0.90
2023-02-19T00:21:18.496Z,0.85
2023-02-19T00:23:52.765Z,0.73
2023-02-19T00:26:19.924Z,0.90
2023-02-19T00:28:47.992Z,0.60
2023-02-19T00:31:20.402Z,0.80
2023-02-19T00:33:49.077Z,1.00
2023-02-19T00:36:16.211Z,0.85
2023-02-19T00:38:44.217Z,0.88
2023-02-19T00:41:19.150Z,0.82
2023-02-19T00:44:00.414Z,1.00
2023-02-19T00:46:33.121Z,0.80
2023-02-19T00:48:59.897Z,0.82
2023-02-19T00:51:29.520Z,0.93
2023-02-19T00:53:56.683Z,0.70
2023-02-19T00:56:23.711Z,0.70
2023-02-19T00:58:51.065Z,0.80
2023-02-19T01:01:18.634Z,0.85
2023-02-19T01:03:46.369Z,0.82
2023-02-19T01:06:15.718Z,0.70
2023-02-19T01:08:42.593Z,0.85
2023-02-19T01:11:10.501Z,0.80
2023-02-19T01:13:37.799Z,0.80
2023-02-19T01:16:11.491Z,1.00
2023-02-19T01:18:38.134Z,1.05
2023-02-19T01:21:10.243Z,0.90
2023-02-19T01:23:37.050Z,0.73
2023-02-19T01:26:05.700Z,0.80
2023-02-19T01:28:32.402Z,0.82
2023-02-19T01:31:04.649Z,0.70
2023-02-19T01:33:31.458Z,0.70
2023-02-19T01:35:58.502Z,0.65
2023-02-19T01:38:25.152Z,0.80
2023-02-19T01:41:00.449Z,0.60
2023-02-19T01:43:27.863Z,0.75
2023-02-19T01:45:54.561Z,0.55
2023-02-19T01:48:26.752Z,0.90
2023-02-19T01:51:14.517Z,0.70
2023-02-19T01:53:45.693Z,0.60
2023-02-19T01:56:15.821Z,0.63
2023-02-19T01:58:42.527Z,0.75
2023-02-19T02:01:09.768Z,0.50
2023-02-19T02:03:38.839Z,0.70
2023-02-19T02:06:21.324Z,0.70
2023-02-19T02:09:09.883Z,0.70
2023-02-19T02:11:38.749Z,0.60
2023-02-19T02:14:05.432Z,0.70
2023-02-19T02:17:02.822Z,0.70
2023-02-19T02:19:41.150Z,0.73
2023-02-19T02:22:20.880Z,0.80
2023-02-19T02:24:52.995Z,0.80
2023-02-19T02:30:06.800Z,0.90
2023-02-19T02:32:40.652Z,0.75
2023-02-19T02:35:13.341Z,0.75
2023-02-19T02:37:42.159Z,0.60
2023-02-19T02:40:11.362Z,0.70
2023-02-19T02:42:40.070Z,0.70
2023-02-19T02:45:37.570Z,0.55
2023-02-19T02:48:22.610Z,0.65
2023-02-19T02:50:55.151Z,0.70
2023-02-19T02:54:01.879Z,0.65
2023-02-19T02:56:30.576Z,0.40
2023-02-19T02:58:59.184Z,0.75
2023-02-19T03:01:53.071Z,0.50
2023-02-19T03:05:03.443Z,0.55
2023-02-19T03:07:46.851Z,0.65
2023-02-19T03:10:26.862Z,0.52
2023-02-19T03:13:14.341Z,0.60
2023-02-19T03:16:21.440Z,0.60
2023-02-19T03:19:11.919Z,0.40
2023-02-19T03:21:41.943Z,0.50
2023-02-19T03:24:29.716Z,0.70
2023-02-19T03:26:59.066Z,0.30
2023-02-19T03:29:29.515Z,0.60
2023-02-19T03:32:00.160Z,0.52
2023-02-19T03:34:35.458Z,0.35
2023-02-19T03:37:14.114Z,0.70
2023-02-19T03:39:46.896Z,0.60
2023-02-19T03:42:39.745Z,0.60
2023-02-19T03:45:50.346Z,0.50
2023-02-19T03:48:35.248Z,0.60
2023-02-19T03:51:21.677Z,0.50
2023-02-19T03:53:57.090Z,0.50
2023-02-19T03:56:36.595Z,0.43
2023-02-19T03:59:20.628Z,0.52
2023-02-19T04:02:11.995Z,0.50
2023-02-19T04:04:45.339Z,0.65
2023-02-19T04:07:12.852Z,0.50
2023-02-19T04:09:44.638Z,0.70
2023-02-19T04:12:14.186Z,0.40
2023-02-19T04:14:50.020Z,0.43
2023-02-19T04:17:34.111Z,0.40
2023-02-19T04:20:04.122Z,0.43
2023-02-19T04:22:31.331Z,0.55
2023-02-19T04:24:58.131Z,0.57
2023-02-19T04:27:24.699Z,0.30
2023-02-19T04:29:51.304Z,0.65
2023-02-19T04:32:18.033Z,0.50
2023-02-19T04:34:44.650Z,0.65
2023-02-19T04:37:11.408Z,0.50
2023-02-19T04:39:37.963Z,0.22
2023-02-19T04:42:04.707Z,0.40
2023-02-19T04:44:31.288Z,0.45
2023-02-19T04:46:57.946Z,0.50
2023-02-19T04:49:24.552Z,0.50
2023-02-19T04:51:51.147Z,0.32
2023-02-19T04:54:17.795Z,0.40
2023-02-19T04:56:44.444Z,0.43
2023-02-19T04:59:11.065Z,0.45
2023-02-19T05:01:37.782Z,0.43
2023-02-19T05:04:05.255Z,0.45
2023-02-19T05:06:32.093Z,0.40
2023-02-19T05:08:58.749Z,0.47
2023-02-19T05:11:25.390Z,0.50
2023-02-19T05:13:52.075Z,0.30
2023-02-19T05:16:18.749Z,0.40
2023-02-19T05:18:46.538Z,0.30
2023-02-19T05:21:14.363Z,0.30
2023-02-19T05:23:41.089Z,0.60
2023-02-19T05:26:09.539Z,0.35
2023-02-19T05:28:36.283Z,0.65
2023-02-19T05:31:07.877Z,0.32
2023-02-19T05:33:37.173Z,0.30
2023-02-19T05:36:12.528Z,0.40
2023-02-19T05:38:39.757Z,0.25
2023-02-19T05:41:12.800Z,0.30
2023-02-19T05:43:41.007Z,0.40
2023-02-19T05:46:08.539Z,0.30
2023-02-19T05:48:35.492Z,0.30
2023-02-19T05:51:07.291Z,0.40
2023-02-19T05:53:34.508Z,0.38
2023-02-19T05:56:01.666Z,0.30
2023-02-19T05:58:28.535Z,0.40
2023-02-19T06:00:55.992Z,0.32
2023-02-19T06:03:23.196Z,0.30
2023-02-19T06:05:49.817Z,0.40
2023-02-19T06:08:16.565Z,0.30
2023-02-19T06:10:43.607Z,0.30
2023-02-19T06:13:10.828Z,0.30
2023-02-19T06:15:37.850Z,0.20
2023-02-19T06:18:04.713Z,0.50
2023-02-19T06:20:31.401Z,0.35
2023-02-19T06:22:58.057Z,0.40
2023-02-19T06:25:24.699Z,0.40
2023-02-19T06:27:51.274Z,0.30
2023-02-19T06:30:18.049Z,0.30
2023-02-19T06:32:44.725Z,0.25
2023-02-19T06:35:11.354Z,0.20
2023-02-19T06:37:37.959Z,0.38
2023-02-19T06:40:04.828Z,0.30
2023-02-19T06:42:33.111Z,0.40
2023-02-19T06:44:59.788Z,0.40
2023-02-19T06:47:26.346Z,0.40
2023-02-19T06:49:52.926Z,0.30
2023-02-19T06:52:19.545Z,0.38
2023-02-19T06:54:46.126Z,0.45
2023-02-19T06:57:12.698Z,0.30
2023-02-19T06:59:39.354Z,0.25
2023-02-19T07:02:06.100Z,0.30
2023-02-19T07:04:32.835Z,0.40
2023-02-19T07:07:00.197Z,0.30
2023-02-19T07:09:28.459Z,0.30
2023-02-19T07:11:55.168Z,0.38
2023-02-19T07:14:21.989Z,0.30
2023-02-19T07:16:48.987Z,0.22
2023-02-19T07:19:15.971Z,0.30
2023-02-19T07:21:42.881Z,0.20
2023-02-19T07:24:10.416Z,0.30
2023-02-19T07:26:37.011Z,0.20
2023-02-19T07:29:04.458Z,0.30
2023-02-19T07:31:31.132Z,0.20
2023-02-19T07:33:57.789Z,0.30
2023-02-19T07:36:25.480Z,0.50
2023-02-19T07:38:56.596Z,0.60
2023-02-19T07:41:24.361Z,0.70
2023-02-19T07:43:51.015Z,0.77
2023-02-19T07:46:17.778Z,0.50
2023-02-19T07:48:44.696Z,0.50
2023-02-19T07:51:17.339Z,0.47
2023-02-19T07:53:44.384Z,0.50
2023-02-19T07:56:12.488Z,0.30
2023-02-19T07:58:39.973Z,0.60
2023-02-19T08:01:43.641Z,0.43
2023-02-19T08:04:12.372Z,0.40
2023-02-19T08:06:39.154Z,0.30
2023-02-19T08:09:06.031Z,0.50
2023-02-19T08:11:51.323Z,0.38
2023-02-19T08:14:17.990Z,0.40
2023-02-19T08:16:52.038Z,0.40
2023-02-19T08:19:19.309Z,0.82
2023-02-19T08:21:45.968Z,0.40
2023-02-19T08:24:12.690Z,0.50
2023-02-19T08:26:39.364Z,0.38
2023-02-19T08:29:06.692Z,0.57
2023-02-19T08:31:34.492Z,0.40
2023-02-19T08:34:01.344Z,0.40
2023-02-19T08:36:28.012Z,0.47
2023-02-19T08:38:54.636Z,0.50
2023-02-19T08:41:21.337Z,0.75
2023-02-19T08:43:48.077Z,0.60
2023-02-19T08:46:15.045Z,0.40
2023-02-19T08:48:41.812Z,0.40
2023-02-19T08:51:11.732Z,0.40
2023-02-19T08:53:40.670Z,0.45
2023-02-19T08:56:15.416Z,0.30
2023-02-19T08:58:42.142Z,0.40
2023-02-19T09:01:14.369Z,0.50
2023-02-19T09:03:41.270Z,0.50
2023-02-19T09:06:11.151Z,0.40
2023-02-19T09:08:37.898Z,0.60
2023-02-19T09:11:06.990Z,0.60
2023-02-19T09:13:33.634Z,0.40
2023-02-19T09:16:00.288Z,0.40
2023-02-19T09:18:27.048Z,0.32
2023-02-19T09:20:53.653Z,0.40
2023-02-19T09:23:20.354Z,0.32
2023-02-19T09:25:46.985Z,0.40
2023-02-19T09:28:13.594Z,0.40
2023-02-19T09:30:40.212Z,0.30
2023-02-19T09:33:06.905Z,0.40
2023-02-19T09:35:33.516Z,0.38
2023-02-19T09:38:02.003Z,0.40
2023-02-19T09:40:30.518Z,0.40
2023-02-19T09:42:57.769Z,1.02
2023-02-19T09:45:26.181Z,0.80
2023-02-19T09:47:56.165Z,1.10
2023-02-19T09:50:30.276Z,1.35
2023-02-19T09:53:01.307Z,1.55
2023-02-19T09:55:31.399Z,1.00
2023-02-19T09:58:00.159Z,1.00
2023-02-19T10:00:33.369Z,0.80
2023-02-19T10:03:11.047Z,0.77
2023-02-19T10:05:39.747Z,0.80
2023-02-19T10:08:14.940Z,1.08
2023-02-19T10:10:43.772Z,0.90
2023-02-19T10:13:18.195Z,1.00
2023-02-19T10:15:58.917Z,0.65
2023-02-19T10:18:30.833Z,1.17
2023-02-19T10:20:58.064Z,9.57
2023-02-19T10:23:25.912Z,10.05
2023-02-19T10:25:57.637Z,11.32
2023-02-19T10:28:28.710Z,30.52
2023-02-19T10:31:01.031Z,24.45
2023-02-19T10:33:28.533Z,44.45
2023-02-19T10:36:07.142Z,30.90
2023-02-19T10:38:45.649Z,26.23
2023-02-19T10:41:18.456Z,30.65
2023-02-19T10:44:09.630Z,28.17
2023-02-19T10:46:43.329Z,24.67
2023-02-19T10:49:39.178Z,26.38
2023-02-19T10:52:26.473Z,26.35
2023-02-19T10:54:56.708Z,26.52
2023-02-19T10:57:34.437Z,25.35
2023-02-19T11:00:19.109Z,26.25
2023-02-19T11:02:46.320Z,24.75
2023-02-19T11:05:14.723Z,23.02
2023-02-19T11:07:54.526Z,23.13
2023-02-19T11:10:32.800Z,21.77
2023-02-19T11:13:02.138Z,23.25
2023-02-19T11:15:32.176Z,23.42
2023-02-19T11:18:18.560Z,23.73
2023-02-19T11:21:03.546Z,24.15
2023-02-19T11:23:37.371Z,22.65
2023-02-19T11:26:15.084Z,20.85
2023-02-19T11:28:43.067Z,20.80
2023-02-19T11:31:20.536Z,19.90
2023-02-19T11:34:00.590Z,20.98
2023-02-19T11:36:34.856Z,20.30
2023-02-19T11:39:19.028Z,19.67
2023-02-19T11:41:57.627Z,18.65
2023-02-19T11:44:39.085Z,20.20
2023-02-19T11:47:11.769Z,18.77
2023-02-19T11:49:57.743Z,21.10
2023-02-19T11:52:56.350Z,22.50
2023-02-19T11:55:49.037Z,21.05
2023-02-19T11:58:51.525Z,21.48
2023-02-19T12:04:32.821Z,19.38
2023-02-19T12:07:02.233Z,17.80
2023-02-19T12:09:44.173Z,17.75
2023-02-19T12:12:30.005Z,17.20
2023-02-19T12:15:13.733Z,18.42
2023-02-19T12:18:08.049Z,17.00
2023-02-19T12:20:55.653Z,17.10
2023-02-19T12:23:37.467Z,18.00
2023-02-19T12:26:22.372Z,15.88
2023-02-19T12:28:55.163Z,16.48
2023-02-19T12:31:54.868Z,16.95
2023-02-19T12:34:47.604Z,15.52
2023-02-19T12:37:27.506Z,15.43
2023-02-19T12:40:23.929Z,15.43
2023-02-19T12:43:20.251Z,15.13
2023-02-19T12:45:58.912Z,13.98
2023-02-19T12:48:35.660Z,14.60
2023-02-19T12:51:19.885Z,14.60
2023-02-19T12:54:01.766Z,13.82
2023-02-19T12:56:34.565Z,12.85
2023-02-19T12:59:10.875Z,12.93
2023-02-19T13:01:50.802Z,12.73
2023-02-19T13:04:30.400Z,12.68
2023-02-19T13:07:05.553Z,12.43
2023-02-19T13:09:49.255Z,12.77
2023-02-19T13:12:34.903Z,11.80
2023-02-19T13:15:07.410Z,11.07
2023-02-19T13:17:44.916Z,11.93
2023-02-19T13:20:29.714Z,11.88
2023-02-19T13:23:18.075Z,10.80
2023-02-19T13:26:03.474Z,11.25
2023-02-19T13:29:01.434Z,10.63
2023-02-19T13:32:00.091Z,10.63
2023-02-19T13:34:55.581Z,10.65
2023-02-19T13:37:23.317Z,11.30
2023-02-19T13:39:52.777Z,9.30
2023-02-19T13:42:32.232Z,9.60
2023-02-19T13:45:00.582Z,9.18
2023-02-19T13:47:47.027Z,5.10
2023-02-19T13:50:40.237Z,4.82
2023-02-19T13:53:40.855Z,7.80
2023-02-19T13:56:35.340Z,6.90
2023-02-19T13:59:11.041Z,7.18
2023-02-19T14:02:00.585Z,6.50
2023-02-19T14:04:50.125Z,5.95
2023-02-19T14:07:16.673Z,5.72
2023-02-19T14:09:46.076Z,5.72
2023-02-19T14:12:15.473Z,4.93
2023-02-19T14:14:54.023Z,5.53
2023-02-19T14:17:35.847Z,5.55
2023-02-19T14:20:17.811Z,5.28
2023-02-19T14:22:55.530Z,5.70
2023-02-19T14:25:31.390Z,4.82
2023-02-19T14:28:10.104Z,5.25
2023-02-19T14:31:07.142Z,5.07
2023-02-19T14:33:36.373Z,5.43
2023-02-19T14:36:36.926Z,4.20
2023-02-19T14:39:14.380Z,5.20
2023-02-19T14:41:45.009Z,4.88
2023-02-19T14:44:19.460Z,5.00
2023-02-19T14:46:53.286Z,4.63
2023-02-19T14:49:28.755Z,5.30
2023-02-19T14:52:03.040Z,4.80
2023-02-19T14:54:39.133Z,4.38
2023-02-19T14:57:13.471Z,4.47
2023-02-19T14:59:40.140Z,4.32
2023-02-19T15:02:21.050Z,4.20
2023-02-19T15:04:47.917Z,4.82
2023-02-19T15:07:20.352Z,4.20
2023-02-19T15:09:51.085Z,4.03
2023-02-19T15:12:28.576Z,3.97
2023-02-19T15:14:59.684Z,3.92
2023-02-19T15:17:29.820Z,3.83
2023-02-19T15:19:58.780Z,3.75
2023-02-19T15:22:28.270Z,3.75
2023-02-19T15:24:55.564Z,3.90
2023-02-19T15:27:24.519Z,3.75
2023-02-19T15:29:53.739Z,3.50
2023-02-19T15:32:26.694Z,3.42
2023-02-19T15:35:04.467Z,3.83
2023-02-19T15:37:34.884Z,4.80
2023-02-19T15:40:07.731Z,9.32
2023-02-19T15:42:35.827Z,16.73
2023-02-19T15:45:23.091Z,17.17
2023-02-19T15:47:57.920Z,10.85
2023-02-19T15:50:33.674Z,6.15
2023-02-19T15:53:21.316Z,8.45
2023-02-19T15:55:53.824Z,11.93
2023-02-19T15:58:40.369Z,18.00
2023-02-19T16:01:19.508Z,21.02
2023-02-19T16:03:46.628Z,12.35
2023-02-19T16:06:16.057Z,15.70
2023-02-19T16:09:01.997Z,15.85
2023-02-19T16:11:35.337Z,18.83
2023-02-19T16:14:27.924Z,17.20
2023-02-19T16:17:16.510Z,16.77
2023-02-19T16:19:45.617Z,15.95
2023-02-19T16:22:16.004Z,16.15
2023-02-19T16:24:49.794Z,14.95
2023-02-19T16:27:37.540Z,13.68
2023-02-19T16:30:08.423Z,13.18
2023-02-19T16:32:35.400Z,12.27
2023-02-19T16:35:02.223Z,12.73
2023-02-19T16:37:40.897Z,12.43
2023-02-19T16:40:07.632Z,12.82
2023-02-19T16:42:58.298Z,13.52
2023-02-19T16:45:27.422Z,12.13
2023-02-19T16:47:54.238Z,12.13
2023-02-19T16:50:26.784Z,12.48
2023-02-19T16:52:55.446Z,11.45
2023-02-19T16:55:22.852Z,11.23
2023-02-19T16:57:49.650Z,12.10
2023-02-19T17:00:22.542Z,11.73
2023-02-19T17:02:52.562Z,11.15
2023-02-19T17:05:20.921Z,11.15
2023-02-19T17:07:47.852Z,10.57
2023-02-19T17:10:18.517Z,10.35
2023-02-19T17:12:45.330Z,10.82
2023-02-19T17:15:12.873Z,10.27
2023-02-19T17:17:40.252Z,10.77
2023-02-19T17:20:16.098Z,10.25
2023-02-19T17:22:43.026Z,10.95
2023-02-19T17:25:10.468Z,9.88
2023-02-19T17:27:37.115Z,10.38
2023-02-19T17:30:09.440Z,10.13
2023-02-19T17:32:36.154Z,9.30
2023-02-19T17:35:02.854Z,9.40
2023-02-19T17:37:29.486Z,8.75
2023-02-19T17:39:56.168Z,9.00
2023-02-19T17:42:23.499Z,9.27
2023-02-19T17:44:51.785Z,8.23
2023-02-19T17:47:18.414Z,9.25
2023-02-19T17:49:45.111Z,8.35
2023-02-19T17:52:13.545Z,8.18
2023-02-19T17:54:40.202Z,8.23
2023-02-19T17:57:06.820Z,7.88
2023-02-19T17:59:33.441Z,7.93
2023-02-19T18:02:00.054Z,8.43
2023-02-19T18:04:26.750Z,8.05
2023-02-19T18:06:53.954Z,7.78
2023-02-19T18:09:22.356Z,6.10
2023-02-19T18:11:49.363Z,3.50
2023-02-19T18:14:16.066Z,3.13
2023-02-19T18:16:50.391Z,2.20
2023-02-19T18:19:17.742Z,2.75
2023-02-19T18:21:44.513Z,2.50
2023-02-19T18:24:11.366Z,2.70
2023-02-19T18:26:37.948Z,2.60
2023-02-19T18:29:05.650Z,2.67
2023-02-19T18:31:33.790Z,2.47
2023-02-19T18:34:00.598Z,2.25
2023-02-19T18:36:27.208Z,2.40
2023-02-19T18:38:53.811Z,2.25
2023-02-19T18:41:21.016Z,2.50
2023-02-19T18:43:48.384Z,2.20
2023-02-19T18:46:15.490Z,2.30
2023-02-19T18:48:42.303Z,2.58
2023-02-19T18:51:12.653Z,2.50
2023-02-19T18:53:41.776Z,2.05
2023-02-19T18:56:09.096Z,2.35
2023-02-19T18:58:35.862Z,2.28
2023-02-19T19:01:02.603Z,2.20
2023-02-19T19:03:31.294Z,2.50
2023-02-19T19:05:58.456Z,2.15
2023-02-19T19:08:25.576Z,2.28
2023-02-19T19:10:52.218Z,2.58
2023-02-19T19:13:18.813Z,2.38
2023-02-19T19:15:50.574Z,2.50
2023-02-19T19:18:18.327Z,2.35
2023-02-19T19:20:45.076Z,2.50
2023-02-19T19:23:12.445Z,2.72
2023-02-19T19:25:39.110Z,2.33
2023-02-19T19:28:05.694Z,2.35
2023-02-19T19:30:33.573Z,2.53
2023-02-19T19:33:01.714Z,2.28
2023-02-19T19:35:28.594Z,2.80
2023-02-19T19:37:55.246Z,2.38
2023-02-19T19:40:23.278Z,2.75
2023-02-19T19:42:52.121Z,2.50
2023-02-19T19:45:18.967Z,2.80
2023-02-19T19:47:45.873Z,2.60
2023-02-19T19:50:14.365Z,2.70
2023-02-19T19:52:41.119Z,2.40
2023-02-19T19:55:08.256Z,2.63
2023-02-19T19:57:34.959Z,2.90
2023-02-19T20:00:01.612Z,3.00
2023-02-19T20:02:28.357Z,2.55
2023-02-19T20:04:55.037Z,3.00
2023-02-19T20:07:21.672Z,3.63
2023-02-19T20:09:49.566Z,6.43
2023-02-19T20:12:17.189Z,5.70
2023-02-19T20:14:45.894Z,5.10
2023-02-19T20:17:12.738Z,4.78
2023-02-19T20:19:39.363Z,5.22
2023-02-19T20:22:05.951Z,5.40
2023-02-19T20:24:32.846Z,5.43
2023-02-19T20:27:02.049Z,5.47
2023-02-19T20:29:31.172Z,5.35
2023-02-19T20:32:02.426Z,5.45
2023-02-19T20:34:29.666Z,6.00
2023-02-19T20:36:56.269Z,5.93
2023-02-19T20:39:22.991Z,5.32
2023-02-19T20:41:51.813Z,5.80
2023-02-19T20:44:19.666Z,5.70
2023-02-19T20:46:50.003Z,6.53
2023-02-19T20:49:18.868Z,5.90
2023-02-19T20:51:48.076Z,5.70
2023-02-19T20:54:17.362Z,6.13
2023-02-19T20:56:48.332Z,5.75
2023-02-19T20:59:16.421Z,5.63
2023-02-19T21:01:43.604Z,5.78
2023-02-19T21:04:10.408Z,5.57
2023-02-19T21:06:37.115Z,6.25
2023-02-19T21:09:04.660Z,5.40
2023-02-19T21:11:31.707Z,5.30
2023-02-19T21:13:59.384Z,6.75
2023-02-19T21:16:28.059Z,6.68
2023-02-19T21:18:54.801Z,7.85
2023-02-19T21:21:25.144Z,6.30
2023-02-19T21:23:56.228Z,8.45
2023-02-19T21:26:24.119Z,9.27
2023-02-19T21:28:52.144Z,8.80
2023-02-19T21:31:19.927Z,8.40
2023-02-19T21:33:47.008Z,8.10
2023-02-19T21:36:14.058Z,7.95
2023-02-19T21:38:41.015Z,7.72
2023-02-19T21:41:07.607Z,7.75
2023-02-19T21:43:34.369Z,7.30
2023-02-19T21:46:01.018Z,8.23
2023-02-19T21:48:27.690Z,8.55
2023-02-19T21:50:54.352Z,8.00
2023-02-19T21:53:21.020Z,7.30
2023-02-19T21:55:57.862Z,7.72
2023-02-19T21:58:26.003Z,7.30
2023-02-19T22:00:54.004Z,6.85
2023-02-19T22:03:21.220Z,7.90
2023-02-19T22:05:48.149Z,8.98
2023-02-19T22:08:17.191Z,9.80
2023-02-19T22:10:45.429Z,9.60
2023-02-19T22:13:12.920Z,9.40
2023-02-19T22:15:39.560Z,9.00
2023-02-19T22:18:06.291Z,9.23
2023-02-19T22:20:34.649Z,8.27
2023-02-19T22:23:01.878Z,8.15
2023-02-19T22:25:29.008Z,8.27
2023-02-19T22:27:55.690Z,8.45
2023-02-19T22:30:22.363Z,8.15
2023-02-19T22:32:49.420Z,8.00
2023-02-19T22:35:16.124Z,8.07
2023-02-19T22:37:43.150Z,8.02
2023-02-19T22:40:10.260Z,8.15
2023-02-19T22:42:37.815Z,7.38
2023-02-19T22:45:05.621Z,8.30
2023-02-19T22:47:32.299Z,7.72
2023-02-19T22:49:59.128Z,6.70
2023-02-19T22:52:27.980Z,7.35
2023-02-19T22:54:55.644Z,7.40
2023-02-19T22:57:22.269Z,7.32
2023-02-19T22:59:48.933Z,7.65
2023-02-19T23:02:15.612Z,8.07
2023-02-19T23:04:42.237Z,6.97
2023-02-19T23:07:08.946Z,7.20
2023-02-19T23:09:35.759Z,8.00
2023-02-19T23:12:05.820Z,7.53
2023-02-19T23:14:32.777Z,7.05
2023-02-19T23:16:59.410Z,7.82
2023-02-19T23:19:26.432Z,7.07
2023-02-19T23:21:53.152Z,6.78
2023-02-19T23:24:20.078Z,7.18
2023-02-19T23:26:49.793Z,7.35
2023-02-19T23:29:25.520Z,7.13
2023-02-19T23:31:53.040Z,7.30
2023-02-19T23:34:19.903Z,7.05
2023-02-19T23:36:48.453Z,6.28
2023-02-19T23:39:17.448Z,6.25
2023-02-19T23:41:52.987Z,6.50
2023-02-19T23:44:22.114Z,7.53
2023-02-19T23:46:49.200Z,7.05
2023-02-19T23:49:16.201Z,6.25
2023-02-19T23:51:42.889Z,6.78
2023-02-19T23:54:09.556Z,6.95
2023-02-19T23:56:36.253Z,6.40
2023-02-19T23:59:03.754Z,6.07
